Список аэропортов
Фактическая погода:

16 декабря, 13:30
Температура: +9°C (+6.3*)
Ветер: южный 5 м/с
Давление: *765 мм
неб. облачность
120 м
разорв. обл.
180 м
Время (МСК)Темп. СВетерВлажностьДавлениеОблачностьОсадки
09:00+10ЮЗ, 6 м/с86%1021 гПаоблачно
10:00+10ЮЗ, 6 м/с86%1021 гПаоблачносл. дождь
11:00+10ЮЗ, 6 м/с87%1021 гПаоблачно
12:00+10ЮЗ, 6 м/с86%1021 гПаоблачнодождь
13:00+10ЮЗ, 7 м/с90%1021 гПаоблачно
14:00+10ЮЗ, 7 м/с93%1020 гПаоблачно
15:00+10ЮЗ, 8 м/с96%1020 гПаоблачносл. дождь
16:00+10З, 7 м/с97%1020 гПаоблачно
17:00+11З, 7 м/с94%1020 гПаоблачно
18:00+12З, 5 м/с80%1020 гПамалооблачно
19:00+12З, 4 м/с63%1021 гПамалооблачно
20:00+11З, 4 м/с56%1023 гПас прояснениями
21:00+10З, 3 м/с58%1023 гПас прояснениями
22:00+9З, 4 м/с61%1024 гПамалооблачно
23:00+8З, 4 м/с66%1026 гПамалооблачно
17 декабря
00:00+8З, 3 м/с66%1027 гПаоблачно
01:00+5СЗ, 2 м/с74%1028 гПаясно
02:00+4З, 2 м/с83%1029 гПаясно
03:00+3З, 2 м/с86%1029 гПаясно
04:00+2З, 2 м/с92%1029 гПамалооблачно
05:00+2З, 2 м/с92%1029 гПас прояснениями
06:00+1З, 1 м/с95%1029 гПамалооблачно
07:000СЗ, 1 м/с97%1030 гПас прояснениями
08:00-0ЮЗ, 1 м/с98%1030 гПаоблачно
09:00-1СЗ, 1 м/с98%1030 гПамалооблачно
10:00-1СВ, 1 м/с98%1031 гПамалооблачно
11:00-1СВ, 1 м/с98%1032 гПаоблачно
12:00-0СВ, 1 м/с97%1032 гПаоблачно
13:00+2СВ, 1 м/с88%1031 гПаоблачно
14:00+5В, 1 м/с75%1030 гПаоблачно
15:00+7ЮВ, 1 м/с64%1029 гПас прояснениями
16:00+8Ю, 2 м/с58%1028 гПаоблачно
17:00+9Ю, 2 м/с55%1028 гПаоблачно
18:00+9Ю, 2 м/с54%1027 гПамалооблачно
19:00+9Ю, 1 м/с56%1028 гПаоблачно
20:00+6Штиль 70%1028 гПаоблачно
21:00+5З, 1 м/с73%1029 гПаоблачно
22:00+4Штиль 79%1029 гПаоблачно
23:00+4С, 1 м/с80%1030 гПаоблачно
18 декабря
00:00+3СВ, 1 м/с86%1030 гПаоблачно
01:00+2СВ, 2 м/с92%1030 гПас прояснениями
02:00+1С, 2 м/с96%1029 гПаоблачно
03:00+1С, 3 м/с95%1030 гПаоблачно
04:000В, 1 м/с98%1030 гПаоблачно
05:00-0С, 2 м/с97%1029 гПаоблачно
06:00-0С, 2 м/с96%1029 гПаоблачно
07:00-0СВ, 2 м/с96%1028 гПаоблачно
08:00-0СВ, 2 м/с96%1028 гПаоблачно
09:00-0С, 1 м/с96%1028 гПаоблачно